Frenchman, Nevada
Current Conditions -  °F | °C
As of 8:56 AM on Thursday 30 Oct 2014 (Local Time) from KNFL Reporting Station
Overcast Overcast  
Wind Chill: 43°   Ceiling: 28000
Heat Index: 43°   Visibility: 10mi
Dew Point: 29°   Wind: 0mph
Humidity: 58%   Direction: NA
Pressure: 30.15"   Gusts: NA
Location:  39.5809°N, 118.333°W
Report Text: KNFL 301556Z 00000KT 10SM FEW160 SCT220 OVC280 06/M02 A3015 RMK AO2 SLP175 T00611017
Loading
Personal Weather Stations






























Interactive Weather Map
Tropical Storm Tracking
New forecast layout! Learn more

10-Day Weather Forecast

Advertisements
Track Severe Weather on mobile